Tiempo atmosférico en la estación meteorológica de Espiel, Córdoba (465 m.)



Fecha
DESCASC
Temp. máxima en grados centígrados (hora)
DESCASC
Temp. mínima en grados centígrados (hora)
DESCASC
Temp. media en grados centígrados
DESCASC
Racha de viento máxima en m/sg (hora)
DESCASC
Velocidad máxima media en intervalos de 10 minutos(hora)
DESCASC
Precipitaciones diarias en mm
DESCASC
Precipitaciones de 00:00 a 06:00 en mm
DESCASC
Precipitaciones de 06:00 a 12:00 en mm
DESCASC
Precipitaciones de 12:00 a 18:00 en mm
DESCASC
Precipitaciones de 18:00 a 24:00 en mm
DESCASC
13-01-2021 14.2 (16:10) -5.7 (07:20) 4.3 4.72 (16:00) 2.5 (16:40) 0.2 0 0.2 0 0
12-01-2021 11.1 (17:10) -5.8 (08:20) 2.7 2.78 (14:50) 1.39 (14:50) 0 0 0 0 0
11-01-2021 9.6 (16:10) -2.8 (07:50) 3.4 6.11 (14:10) 3.06 (14:50) 0 0 0 0 0
10-01-2021 8.6 (13:30) -0.3 (23:59) 4.2 5.28 (13:50) 2.22 (14:10) 0.2 0 0.2 0 0
09-01-2021 4.6 (17:00) -0.5 (-00:0) 2 5.56 (10:30) 2.22 (01:10) 2.8 1.8 0.6 0.2 0.2
08-01-2021 5.8 (15:00) 3.3 (00:00) 4.6 4.44 (23:00) 2.22 (22:10) 46 2.6 6 15.4 22
07-01-2021 5.5 (17:00) 3.3 (00:00) 4.4 3.61 (07:10) 1.67 (10:30) 9.2 3 4 1.6 0.6
06-01-2021 7.6 (16:00) -4.8 (-00:0) 1.4 4.17 (16:30) 2.22 (16:30) 2 0 0 0 2
05-01-2021 8.4 (14:30) -3.1 (-00:0) 2.6 4.17 (14:40) 1.94 (14:30) 0 0 0 0 0
04-01-2021 6.3 (15:10) -3.7 (-00:0) 1.3 5 (14:40) 2.22 (14:40) 0.2 0 0 0.2 0
03-01-2021 9.5 (15:00) -5.5 (-00:0) 2 5.56 (16:20) 3.33 (16:20) 0 0 0 0 0
02-01-2021 8 (15:30) -0.4 (00:00) 3.8 7.78 (14:50) 4.17 (12:50) 0 0 0 0 0
01-01-2021 9.6 (15:50) 2.6 (00:00) 6.1 9.17 (07:20) 4.72 (10:40) 0.6 0.2 0 0 0.4
31-12-2020 10.3 (14:50) -2.8 (-00:0) 3.8 7.78 (14:10) 4.17 (14:20) 0.2 0 0 0 0.2
30-12-2020 9.8 (16:00) -1.6 (-00:0) 4.1 4.17 (07:50) 2.5 (16:20) 0.2 0 0 0.2 0
29-12-2020 10.3 (15:20) -0.3 (00:00) 5 10 (15:40) 4.72 (14:30) 1 0 0 1 0
28-12-2020 11.3 (14:30) 1.4 (00:00) 6.4 10 (16:20) 5.83 (14:20) 1.6 0 1.6 0 0
27-12-2020 13.2 (16:00) -4.2 (-00:0) 4.5 4.44 (16:40) 2.22 (16:40) 0.2 0 0.2 0 0
26-12-2020 10.9 (15:00) -3.2 (-00:0) 3.8 6.67 (13:30) 3.33 (12:30) 0 0 0 0 0
25-12-2020 13.2 (13:40) 4.2 (00:00) 8.7 8.89 (13:50) 3.89 (14:10) 0 0 0 0 0
24-12-2020 14.7 (16:20) 7.8 (00:00) 11.3 3.61 (14:00) 2.22 (14:00) 0 0 0 0 0
23-12-2020 14.6 (15:10) 4.1 (00:00) 9.4 2.78 (17:50) 1.39 (13:10) 0.2 0 0.2 0 0
22-12-2020 20 (15:40) 3.2 (00:00) 11.6 3.33 (14:20) 1.39 (14:20) 0 0 0 0 0
21-12-2020 16.6 (16:00) 3.4 (00:00) 10 2.22 (14:30) 1.11 (13:20) 0.2 0.2 0 0 0
20-12-2020 14 (15:40) 4.2 (00:00) 9.1 4.72 (11:50) 2.5 (12:30) 1.4 1.4 0 0 0
19-12-2020 10.5 (16:00) 7.6 (00:00) 9 4.72 (16:50) 2.22 (11:50) 11.4 0 0.2 5.4 5.8
18-12-2020 13 (16:00) 5 (00:00) 9 3.06 (15:50) 1.67 (15:50) 0.2 0 0.2 0 0
17-12-2020 15.4 (15:50) 5.9 (00:00) 10.6 4.17 (16:00) 2.22 (16:00) 0 0 0 0 0

Gráficas

Temp. máximas Temp. mínimas Temp. medias Precipitaciones Rachas de viento máximas Velocidades máximas media en intervalos de 10 minutos

Datos horarios

Fecha y hora oficial Temperatura (ºC) Velocidad del viento (km/h) Dirección del viento Racha (km/h) Dirección de racha Precipitación (mm) Presión (hPa) Tendencia (hPa) Humedad (%)
2021-01-15 23:00:00 0.3 0 Calma 2 Nordeste 0 -- -- 91
2021-01-15 22:00:00 1.6 0 Calma 4 Sudeste 0 -- -- 90
2021-01-15 21:00:00 3 3 Este 8 Sur 0 -- -- 85
2021-01-15 20:00:00 4.5 2 Norte 6 Nordeste 0 -- -- 79
2021-01-15 19:00:00 8.1 4 Norte 10 Norte 0 -- -- 64
2021-01-15 18:00:00 13.1 8 Norte 19 Noroeste 0 -- -- 49
2021-01-15 17:00:00 14.6 7 Noroeste 19 Norte 0 -- -- 43
2021-01-15 16:00:00 15.2 10 Noroeste 18 Noroeste 0 -- -- 42
2021-01-15 15:00:00 13.9 7 Sudoeste 12 Sudoeste 0 -- -- 50
2021-01-15 14:00:00 11.6 3 Sur 6 Sur 0 -- -- 62
2021-01-15 13:00:00 8.1 2 Sudoeste 6 Sur 0 -- -- 73
2021-01-15 12:00:00 5 2 Sur 6 Sur 0 -- -- 82
2021-01-15 11:00:00 1.5 0 Calma 3 Sudeste 0.2 -- -- 92
2021-01-15 10:00:00 -1.7 0 Calma 2 Noroeste 0 -- -- 96
2021-01-15 09:00:00 -3.9 0 Calma 2 Este 0 -- -- 94
2021-01-15 08:00:00 -4 0 Calma 3 Noroeste 0 -- -- 94
2021-01-15 07:00:00 -3.9 0 Calma 3 Noroeste 0 -- -- 94
2021-01-15 06:00:00 -3.6 0 Calma 3 Noroeste 0 -- -- 94
2021-01-15 05:00:00 -3.3 0 Calma 4 Noroeste 0 -- -- 94
2021-01-15 04:00:00 -3 2 Noroeste 3 Noroeste 0 -- -- 94
2021-01-15 03:00:00 -2.4 0 Calma 2 Este 0 -- -- 94
2021-01-15 02:00:00 -1.9 0 Calma 3 Norte 0 -- -- 94
2021-01-15 01:00:00 -1.5 2 Norte 4 Norte 0 -- -- 94
2021-01-15 00:00:00 -1 0 Calma 3 Sudeste 0 -- -- 93
2021-01-14 23:00:00 -0.5 2 Nordeste 3 Este 0 -- -- 92
2021-01-14 22:00:00 0.4 0 Calma 3 Norte 0 -- -- 90
2021-01-14 21:00:00 1.7 0 Calma 2 Noroeste 0 -- -- 88
2021-01-14 20:00:00 3.5 0 Calma 4 Este 0 -- -- 82
2021-01-14 19:00:00 7.5 0 Calma 11 Noroeste 0 -- -- 67
2021-01-14 18:00:00 11.2 5 Noroeste 12 Noroeste 0 -- -- 54
2021-01-14 17:00:00 12 7 Noroeste 15 Noroeste 0 -- -- 55
2021-01-14 16:00:00 13.6 4 Este 17 Nordeste 0 -- -- 45
2021-01-14 15:00:00 12.3 4 Sudoeste 10 Sudoeste 0 -- -- 51
2021-01-14 14:00:00 10.2 4 Sur 6 Sudoeste 0 -- -- 61
2021-01-14 13:00:00 6.6 2 Sudoeste 5 Sudoeste 0 -- -- 74
2021-01-14 12:00:00 3.2 0 Calma 4 Sur 0 -- -- 84
2021-01-14 11:00:00 0.6 0 Calma 3 Sudeste 0 -- -- 91
2021-01-14 10:00:00 -1.6 0 Calma 0 Calma 0 -- -- 96
2021-01-14 09:00:00 -4.3 0 Calma 0 Calma 0 -- -- 95
2021-01-14 08:00:00 -4.4 0 Calma 0 Calma 0 -- -- 94
2021-01-14 07:00:00 -4.1 2 Este 2 Este 0 -- -- 94
2021-01-14 06:00:00 -3.9 2 Este 3 Este 0 -- -- 94
2021-01-14 05:00:00 -3.7 0 Calma 2 Noroeste 0 -- -- 93
2021-01-14 04:00:00 -3.4 0 Calma 2 Este 0 -- -- 93
2021-01-14 03:00:00 -3 0 Calma 0 Calma 0 -- -- 93
2021-01-14 02:00:00 -2.8 0 Calma 2 Este 0 -- -- 93
2021-01-14 01:00:00 -2.4 0 Calma 2 Nordeste 0 -- -- 93
2021-01-14 00:00:00 -2.2 0 Calma 2 Norte 0 -- -- 92
2021-01-13 23:00:00 -1.4 0 Calma 2 Este 0 -- -- 91
2021-01-13 22:00:00 -0.7 0 Calma 2 Oeste 0 -- -- 89
2021-01-13 21:00:00 0.5 0 Calma 3 Sudoeste 0 -- -- 85
2021-01-13 20:00:00 2.1 0 Calma 2 Sudoeste 0 -- -- 78
2021-01-13 19:00:00 5.4 0 Calma 5 Norte 0 -- -- 61
2021-01-13 18:00:00 12.6 4 Noroeste 13 Oeste 0 -- -- 42
2021-01-13 17:00:00 13.9 8 Oeste 15 Oeste 0 -- -- 38
2021-01-13 16:00:00 14.1 8 Oeste 17 Oeste 0 -- -- 40
2021-01-13 15:00:00 12.8 6 Sudoeste 12 Oeste 0 -- -- 41
2021-01-13 14:00:00 10.5 3 Sudoeste 6 Sur 0 -- -- 53
2021-01-13 13:00:00 6.9 3 Sudoeste 6 Sur 0 -- -- 67
2021-01-13 12:00:00 3.8 3 Sudoeste 5 Sur 0 -- -- 76
2021-01-13 11:00:00 1 2 Sudoeste 4 Sudoeste 0.2 -- -- 83
2021-01-13 10:00:00 -2.1 0 Calma 0 Calma 0 -- -- 97
2021-01-13 09:00:00 -5.3 0 Calma 2 Norte 0 -- -- 94
2021-01-13 08:00:00 -5.6 0 Calma 3 Noroeste 0 -- -- 93
2021-01-13 07:00:00 -5.5 0 Calma 3 Noroeste 0 -- -- 93
2021-01-13 06:00:00 -5.1 2 Noroeste 3 Noroeste 0 -- -- 93
2021-01-13 05:00:00 -4.9 0 Calma 2 Nordeste 0 -- -- 93
2021-01-13 04:00:00 -4.5 0 Calma 4 Noroeste 0 -- -- 93
2021-01-13 03:00:00 -4.2 0 Calma 2 Norte 0 -- -- 93
2021-01-13 02:00:00 -3.6 0 Calma 3 Norte 0 -- -- 93
2021-01-13 01:00:00 -3 0 Calma 4 Norte 0 -- -- 92
2021-01-13 00:00:00 -2.6 0 Calma 2 Este 0 -- -- 92
2021-01-12 23:00:00 -1.8 0 Calma 3 Nordeste 0 -- -- 92
2021-01-12 22:00:00 -1.2 0 Calma 4 Nordeste 0 -- -- 90
2021-01-12 21:00:00 -0.5 0 Calma 2 Sudoeste 0 -- -- 87
2021-01-12 20:00:00 1.1 0 Calma 4 Norte 0 -- -- 81
2021-01-12 19:00:00 3.8 0 Calma 5 Sudoeste 0 -- -- 70
2021-01-12 18:00:00 9.4 0 Calma 5 Sudoeste 0 -- -- 50
2021-01-12 17:00:00 11 3 Oeste 10 Sudoeste 0 -- -- 40
2021-01-12 16:00:00 10.7 5 Sudoeste 10 Oeste 0 -- -- 41
2021-01-12 15:00:00 9.8 5 Sudoeste 10 Sudoeste 0 -- -- 42
2021-01-12 14:00:00 8.6 2 Sudeste 9 Sudoeste 0 -- -- 45
2021-01-12 13:00:00 6.2 3 Sudoeste 5 Sur 0 -- -- 54
2021-01-12 12:00:00 3.2 0 Calma 5 Sur 0 -- -- 70
2021-01-12 11:00:00 0.3 0 Calma 4 Sur 0 -- -- 80
2021-01-12 10:00:00 -3 0 Calma 3 Noroeste 0 -- -- 92
2021-01-12 09:00:00 -5.5 0 Calma 3 Noroeste 0 -- -- 94
2021-01-12 08:00:00 -5.6 0 Calma 4 Noroeste 0 -- -- 92
2021-01-12 07:00:00 -5.4 0 Calma 3 Norte 0 -- -- 93
2021-01-12 06:00:00 -5.2 0 Calma 3 Noroeste 0 -- -- 92
2021-01-12 05:00:00 -4.8 0 Calma 2 Noroeste 0 -- -- 92
2021-01-12 04:00:00 -4.4 0 Calma 2 Norte 0 -- -- 92
2021-01-12 03:00:00 -4.1 0 Calma 2 Noroeste 0 -- -- 91
2021-01-12 02:00:00 -3.6 0 Calma 2 Este 0 -- -- 91
2021-01-12 01:00:00 -3 0 Calma 3 Norte 0 -- -- 90
2021-01-12 00:00:00 -2.5 0 Calma 4 Norte 0 -- -- 89
2021-01-11 23:00:00 -1.8 2 Norte 4 Norte 0 -- -- 89
2021-01-11 22:00:00 -1.1 0 Calma 3 Norte 0 -- -- 87
2021-01-11 21:00:00 0.7 0 Calma 5 Sudoeste 0 -- -- 82
2021-01-11 20:00:00 1.4 2 Norte 7 Noroeste 0 -- -- 78
2021-01-11 19:00:00 4.2 5 Nordeste 12 Norte 0 -- -- 69
2021-01-11 18:00:00 7.9 6 Noroeste 16 Noroeste 0 -- -- 58
2021-01-11 17:00:00 9.3 6 Noroeste 15 Noroeste 0 -- -- 54
2021-01-11 16:00:00 9.4 6 Noroeste 19 Oeste 0 -- -- 53
2021-01-11 15:00:00 9.2 8 Noroeste 22 Noroeste 0 -- -- 57
2021-01-11 14:00:00 8.7 7 Sudoeste 13 Oeste 0 -- -- 62
2021-01-11 13:00:00 7.3 8 Noroeste 15 Noroeste 0 -- -- 61
2021-01-11 12:00:00 6 6 Oeste 16 Oeste 0 -- -- 70
2021-01-11 11:00:00 3.7 6 Oeste 11 Noroeste 0 -- -- 77
2021-01-11 10:00:00 0.6 3 Noroeste 6 Noroeste 0 -- -- 97
2021-01-11 09:00:00 -2.5 0 Calma 4 Este 0 -- -- 95
2021-01-11 08:00:00 -2.8 0 Calma 3 Norte 0 -- -- 94
2021-01-11 07:00:00 -2.1 2 Nordeste 5 Este 0 -- -- 94
2021-01-11 06:00:00 -1.6 3 Noroeste 6 Noroeste 0 -- -- 95
2021-01-11 05:00:00 -1.6 3 Norte 5 Norte 0 -- -- 94
2021-01-11 04:00:00 -1.1 4 Noroeste 8 Noroeste 0 -- -- 94
2021-01-11 03:00:00 -1.5 3 Norte 7 Noroeste 0 -- -- 94
2021-01-11 02:00:00 -1.4 4 Noroeste 5 Noroeste 0 -- -- 94
2021-01-11 01:00:00 -0.9 2 Noroeste 7 Noroeste 0 -- -- 91
2021-01-11 00:00:00 -0.3 0 Calma 7 Noroeste 0 -- -- 90
2021-01-10 23:00:00 0.7 3 Norte 5 Norte 0 -- -- 87
2021-01-10 22:00:00 3 0 Calma 15 Nordeste 0 -- -- 79
2021-01-10 21:00:00 4.3 7 Nordeste 14 Nordeste 0 -- -- 76
2021-01-10 20:00:00 4.5 2 Norte 10 Nordeste 0 -- -- 81
2021-01-10 19:00:00 5.4 6 Nordeste 13 Norte 0 -- -- 76
2021-01-10 18:00:00 6.2 5 Nordeste 14 Nordeste 0 -- -- 73
2021-01-10 17:00:00 6.4 7 Nordeste 14 Nordeste 0 -- -- 72
2021-01-10 16:00:00 6.8 5 Norte 13 Nordeste 0 -- -- 68
2021-01-10 15:00:00 7.5 5 Este 18 Sudeste 0 -- -- 51
2021-01-10 14:00:00 8.6 6 Sudeste 19 Sur 0 -- -- 51
2021-01-10 13:00:00 8 6 Sudeste 15 Sudeste 0 -- -- 68
2021-01-10 12:00:00 6.4 3 Norte 10 Sudoeste 0 -- -- 74
2021-01-10 11:00:00 5.1 8 Nordeste 17 Este 0 -- -- 84
2021-01-10 10:00:00 2.9 3 Sudoeste 12 Este 0 -- -- 95
2021-01-10 09:00:00 1.5 2 Norte 6 Este 0.2 -- -- 96
2021-01-10 08:00:00 1.9 2 Oeste 5 Este 0 -- -- 97
2021-01-10 07:00:00 1.4 0 Calma 8 Este 0 -- -- 97
2021-01-10 06:00:00 0.3 2 Norte 5 Norte 0 -- -- 96
2021-01-10 05:00:00 0.3 0 Calma 3 Norte 0 -- -- 96
2021-01-10 04:00:00 0.4 0 Calma 5 Este 0 -- -- 96
2021-01-10 03:00:00 0.9 2 Norte 8 Sudoeste 0 -- -- 95
2021-01-10 02:00:00 1.4 0 Calma 4 Este 0 -- -- 94
2021-01-10 01:00:00 2.2 0 Calma 4 Sudeste 0 -- -- 96
2021-01-10 00:00:00 2.2 3 Este 10 Sur 0.2 -- -- 96
2021-01-09 23:00:00 1.5 2 Sudeste 6 Este 0 -- -- 97
2021-01-09 22:00:00 0.2 0 Calma 4 Sudeste 0 -- -- 96
2021-01-09 21:00:00 0.3 0 Calma 5 Este 0 -- -- 94
2021-01-09 20:00:00 0.7 3 Este 7 Este 0 -- -- 92
2021-01-09 19:00:00 2.8 5 Este 8 Este 0 -- -- 90
2021-01-09 18:00:00 3.7 2 Este 10 Sudeste 0 -- -- 89
2021-01-09 17:00:00 4.6 3 Sur 12 Sudoeste 0 -- -- 85
2021-01-09 16:00:00 4.4 4 Sur 11 Sur 0 -- -- 88
2021-01-09 15:00:00 3.9 3 Sur 17 Oeste 0 -- -- 90
2021-01-09 14:00:00 3.4 8 Sudoeste 19 Sudoeste 0 -- -- 92
2021-01-09 13:00:00 3.8 6 Sudoeste 18 Sudoeste 0.2 -- -- 92
2021-01-09 12:00:00 3.6 8 Sudoeste 15 Sur 0.6 -- -- 92
2021-01-09 11:00:00 3.5 4 Sudoeste 20 Sudoeste 0 -- -- 93
2021-01-09 10:00:00 3 3 Sudoeste 13 Oeste 0 -- -- 95
2021-01-09 09:00:00 2.8 5 Noroeste 10 Oeste 0 -- -- 96
2021-01-09 08:00:00 3.1 4 Noroeste 10 Oeste 0 -- -- 96
2021-01-09 07:00:00 3.4 2 Noroeste 8 Oeste 0 -- -- 97
2021-01-09 06:00:00 3.6 0 Calma 5 Noroeste 0.2 -- -- 97
2021-01-09 05:00:00 3.8 3 Noroeste 6 Noroeste 0 -- -- 97
2021-01-09 04:00:00 4 3 Noroeste 5 Noroeste 0 -- -- 97
2021-01-09 03:00:00 3.9 2 Noroeste 10 Noroeste 0.4 -- -- 97
2021-01-09 02:00:00 4 3 Noroeste 15 Noroeste 0.2 -- -- 97
2021-01-09 01:00:00 4 4 Noroeste 15 Noroeste 1 -- -- 97
2021-01-09 00:00:00 4.1 5 Noroeste 13 Noroeste 1.6 -- -- 97
2021-01-08 23:00:00 4.3 8 Noroeste 16 Noroeste 2.8 -- -- 97
2021-01-08 22:00:00 5.1 7 Noroeste 12 Noroeste 4.4 -- -- 97
2021-01-08 21:00:00 5.2 2 Sudoeste 9 Sudoeste 5.4 -- -- 97
2021-01-08 20:00:00 5 3 Noroeste 9 Noroeste 4.6 -- -- 97
2021-01-08 19:00:00 5.1 3 Oeste 10 Oeste 3.2 -- -- 97
2021-01-08 18:00:00 5.2 6 Oeste 12 Oeste 2.2 -- -- 97
2021-01-08 17:00:00 5.6 5 Oeste 12 Oeste 1.4 -- -- 96
2021-01-08 16:00:00 5.7 5 Noroeste 13 Oeste 3.2 -- -- 96
2021-01-08 15:00:00 5.8 3 Oeste 10 Oeste 2.2 -- -- 96
2021-01-08 14:00:00 5.1 3 Noroeste 12 Noroeste 3 -- -- 96
2021-01-08 13:00:00 4.9 3 Noroeste 10 Oeste 3.4 -- -- 96
2021-01-08 12:00:00 4.8 3 Noroeste 10 Oeste 3 -- -- 94
2021-01-08 11:00:00 4.7 4 Oeste 14 Oeste 1 -- -- 94
2021-01-08 10:00:00 4.6 3 Norte 7 Norte 1 -- -- 95
2021-01-08 09:00:00 4.3 4 Oeste 10 Noroeste 0.4 -- -- 96
2021-01-08 08:00:00 4.3 0 Calma 6 Noroeste 0.4 -- -- 95
2021-01-08 07:00:00 4.1 0 Calma 6 Noroeste 0.2 -- -- 94
2021-01-08 06:00:00 4.1 2 Norte 8 Oeste 0.4 -- -- 94
2021-01-08 05:00:00 3.8 2 Noroeste 6 Oeste 0.4 -- -- 95
2021-01-08 04:00:00 3.7 4 Noroeste 9 Oeste 0.6 -- -- 94
2021-01-08 03:00:00 3.6 0 Calma 6 Oeste 0.4 -- -- 93
2021-01-08 02:00:00 3.6 2 Sudeste 9 Este 0.4 -- -- 93
2021-01-08 01:00:00 3.4 0 Calma 6 Este 0.4 -- -- 93
2021-01-08 00:00:00 3.3 2 Noroeste 9 Noroeste 0.4 -- -- 92
2021-01-07 23:00:00 3.4 0 Calma 5 Noroeste 0.2 -- -- 92
2021-01-07 22:00:00 3.6 2 Noroeste 5 Norte 0 -- -- 90
2021-01-07 21:00:00 3.9 3 Noroeste 8 Norte 0 -- -- 89
2021-01-07 20:00:00 4.5 2 Noroeste 7 Norte 0 -- -- 90
2021-01-07 19:00:00 4.8 2 Este 8 Noroeste 0 -- -- 87
2021-01-07 18:00:00 5.1 3 Noroeste 11 Nordeste 0 -- -- 88
2021-01-07 17:00:00 5.5 2 Sudoeste 6 Nordeste 0 -- -- 87
2021-01-07 16:00:00 5.4 3 Noroeste 8 Norte 0.2 -- -- 88
2021-01-07 15:00:00 5 4 Nordeste 10 Nordeste 0 -- -- 89
2021-01-07 14:00:00 4.7 3 Noroeste 13 Norte 0.6 -- -- 91
2021-01-07 13:00:00 4.4 4 Norte 11 Norte 0.8 -- -- 91
2021-01-07 12:00:00 4.6 4 Noroeste 8 Noroeste 1 -- -- 93
2021-01-07 11:00:00 4.4 2 Noroeste 12 Norte 0.6 -- -- 92
2021-01-07 10:00:00 4.4 3 Este 8 Este 0.4 -- -- 91
2021-01-07 09:00:00 4.4 0 Calma 12 Norte 1 -- -- 92
2021-01-07 08:00:00 4.6 5 Norte 13 Nordeste 0.8 -- -- 93
2021-01-07 07:00:00 4.6 4 Nordeste 12 Este 0.2 -- -- 94
2021-01-07 06:00:00 4.6 0 Calma 5 Noroeste 0.4 -- -- 95
2021-01-07 05:00:00 4.6 2 Noroeste 5 Norte 0.8 -- -- 94
2021-01-07 04:00:00 4.6 0 Calma 7 Nordeste 0.6 -- -- 94
2021-01-07 03:00:00 4.7 0 Calma 5 Nordeste 0.4 -- -- 94
2021-01-07 02:00:00 4.7 0 Calma 5 Nordeste 0.6 -- -- 94
2021-01-07 01:00:00 4.6 2 Nordeste 5 Este 0.2 -- -- 93
2021-01-07 00:00:00 4.8 0 Calma 3 Este 0.6 -- -- 93
2021-01-06 23:00:00 4.9 0 Calma 4 Sur 0.8 -- -- 92
2021-01-06 22:00:00 5.2 0 Calma 4 Este 0.4 -- -- 90
2021-01-06 21:00:00 5.5 0 Calma 5 Sudoeste 0.2 -- -- 85
2021-01-06 20:00:00 5.9 0 Calma 10 Sudeste 0 -- -- 79
2021-01-06 19:00:00 6.2 2 Nordeste 12 Nordeste 0 -- -- 75
2021-01-06 18:00:00 6.7 3 Nordeste 10 Este 0 -- -- 73
2021-01-06 17:00:00 7.3 3 Sudoeste 15 Este 0 -- -- 73
2021-01-06 16:00:00 7.6 0 Calma 8 Sudeste 0 -- -- 72
2021-01-06 15:00:00 6.6 2 Sudoeste 6 Noroeste 0 -- -- 71
2021-01-06 14:00:00 5.8 3 Sudoeste 7 Sudoeste 0 -- -- 70
2021-01-06 13:00:00 4.6 3 Sur 7 Oeste 0 -- -- 77
2021-01-06 12:00:00 1.7 0 Calma 5 Oeste 0 -- -- 87
2021-01-06 11:00:00 -0.4 2 Este 6 Este 0 -- -- 91
2021-01-06 10:00:00 -1.6 0 Calma 5 Sur 0 -- -- 94
2021-01-06 09:00:00 -2.5 0 Calma 6 Sudoeste 0 -- -- 95
2021-01-06 08:00:00 -3.6 0 Calma 4 Norte 0 -- -- 95
2021-01-06 07:00:00 -4 2 Nordeste 5 Nordeste 0 -- -- 95
2021-01-06 06:00:00 -4.7 2 Noroeste 3 Noroeste 0 -- -- 93
2021-01-06 05:00:00 -4.3 0 Calma 4 Noroeste 0 -- -- 93
2021-01-06 04:00:00 -4.3 0 Calma 3 Noroeste 0 -- -- 93
2021-01-06 03:00:00 -4 0 Calma 3 Noroeste 0 -- -- 93
2021-01-06 02:00:00 -3.5 0 Calma 3 Nordeste 0 -- -- 93
2021-01-06 01:00:00 -3.1 0 Calma 4 Norte 0 -- -- 93
2021-01-06 00:00:00 -3.1 0 Calma 3 Noroeste 0 -- -- 93
2021-01-05 23:00:00 -2.6 0 Calma 4 Noroeste 0 -- -- 91
2021-01-05 22:00:00 -1.9 3 Norte 5 Noroeste 0 -- -- 91
2021-01-05 21:00:00 -1.2 0 Calma 2 Este 0 -- -- 88
2021-01-05 20:00:00 0.5 2 Nordeste 5 Norte 0 -- -- 82
2021-01-05 19:00:00 3.7 3 Nordeste 11 Nordeste 0 -- -- 73
2021-01-05 18:00:00 5.7 5 Norte 12 Norte 0 -- -- 70
2021-01-05 17:00:00 7.5 3 Norte 9 Este 0 -- -- 59
2021-01-05 16:00:00 7.6 4 Norte 12 Norte 0 -- -- 57
2021-01-05 15:00:00 8.4 5 Sudeste 15 Este 0 -- -- 54
2021-01-05 14:00:00 8.1 4 Sudoeste 10 Sudoeste 0 -- -- 64
2021-01-05 13:00:00 6.4 4 Oeste 10 Sudoeste 0 -- -- 77
2021-01-05 12:00:00 5.3 3 Nordeste 12 Este 0 -- -- 84
2021-01-05 11:00:00 3.7 5 Este 11 Este 0 -- -- 90
2021-01-05 10:00:00 3 3 Sudeste 7 Sudeste 0 -- -- 96
2021-01-05 09:00:00 1.6 2 Este 4 Sudeste 0 -- -- 96
2021-01-05 08:00:00 2.2 0 Calma 4 Sudeste 0 -- -- 96
2021-01-05 07:00:00 1.9 0 Calma 3 Noroeste 0 -- -- 96
2021-01-05 06:00:00 2.3 2 Este 4 Oeste 0 -- -- 96
2021-01-05 05:00:00 2.3 0 Calma 4 Norte 0 -- -- 96
2021-01-05 04:00:00 2.2 0 Calma 2 Nordeste 0 -- -- 96
2021-01-05 03:00:00 2 0 Calma 2 Nordeste 0 -- -- 96
2021-01-05 02:00:00 1.6 0 Calma 7 Noroeste 0 -- -- 96
2021-01-05 01:00:00 1.6 0 Calma 3 Nordeste 0 -- -- 96
2021-01-05 00:00:00 0.8 0 Calma 3 Este 0 -- -- 96
2021-01-04 23:00:00 -0.6 0 Calma 7 Este 0 -- -- 93
2021-01-04 22:00:00 0 2 Nordeste 4 Nordeste 0 -- -- 92
2021-01-04 21:00:00 1.2 0 Calma 5 Norte 0 -- -- 89
2021-01-04 20:00:00 3.7 0 Calma 8 Noroeste 0 -- -- 84
2021-01-04 19:00:00 5.1 3 Este 5 Este 0 -- -- 84
2021-01-04 18:00:00 5.9 0 Calma 10 Sudeste 0 -- -- 80
2021-01-04 17:00:00 6.2 4 Sudoeste 10 Oeste 0 -- -- 80
2021-01-04 16:00:00 6 3 Sudeste 15 Sudoeste 0.2 -- -- 82
2021-01-04 15:00:00 6.2 3 Sudeste 18 Sur 0 -- -- 77
2021-01-04 14:00:00 5.9 0 Calma 5 Sudoeste 0 -- -- 80
2021-01-04 13:00:00 4.8 0 Calma 5 Este 0 -- -- 85
2021-01-04 12:00:00 3 3 Este 6 Este 0 -- -- 97
2021-01-04 11:00:00 1.7 0 Calma 3 Este 0 -- -- 97
2021-01-04 10:00:00 0.3 0 Calma 2 Noroeste 0 -- -- 97
2021-01-04 09:00:00 -0.5 0 Calma 3 Norte 0 -- -- 97
2021-01-04 08:00:00 -1.2 0 Calma 2 Norte 0 -- -- 96
2021-01-04 07:00:00 -1.6 0 Calma 3 Nordeste 0 -- -- 96
2021-01-04 06:00:00 -2.1 2 Norte 3 Norte 0 -- -- 95
2021-01-04 05:00:00 -3.6 0 Calma 2 Este 0 -- -- 94
2021-01-04 04:00:00 -3.2 0 Calma 3 Este 0 -- -- 94
2021-01-04 03:00:00 -3 2 Este 2 Este 0 -- -- 94
2021-01-04 02:00:00 -3 0 Calma 2 Norte 0 -- -- 93
2021-01-04 01:00:00 -2.5 0 Calma 0 Calma 0 -- -- 93
2021-01-04 00:00:00 -2.2 2 Este 4 Este 0 -- -- 93
2021-01-03 23:00:00 -1.7 0 Calma 2 Este 0 -- -- 91
2021-01-03 22:00:00 -0.9 0 Calma 3 Oeste 0 -- -- 90
2021-01-03 21:00:00 0.2 0 Calma 5 Norte 0 -- -- 86
2021-01-03 20:00:00 1.7 0 Calma 6 Norte 0 -- -- 83
2021-01-03 19:00:00 3.9 3 Este 13 Sur 0 -- -- 75
2021-01-03 18:00:00 8.1 4 Oeste 14 Noroeste 0 -- -- 55
2021-01-03 17:00:00 9.2 6 Noroeste 20 Noroeste 0 -- -- 48
2021-01-03 16:00:00 9.5 9 Noroeste 19 Noroeste 0 -- -- 46
2021-01-03 15:00:00 9.5 9 Noroeste 17 Noroeste 0 -- -- 50
2021-01-03 14:00:00 8.8 5 Oeste 12 Oeste 0 -- -- 51
2021-01-03 13:00:00 7.1 3 Sudoeste 9 Sudoeste 0 -- -- 59
2021-01-03 12:00:00 4 3 Sur 6 Sur 0 -- -- 75
2021-01-03 11:00:00 0.6 0 Calma 4 Sur 0 -- -- 83
2021-01-03 10:00:00 -2.7 0 Calma 3 Oeste 0 -- -- 95
2021-01-03 09:00:00 -5.2 0 Calma 4 Noroeste 0 -- -- 93
2021-01-03 08:00:00 -5.3 0 Calma 3 Este 0 -- -- 93
2021-01-03 07:00:00 -5.2 2 Este 3 Este 0 -- -- 92
2021-01-03 06:00:00 -4.6 0 Calma 4 Norte 0 -- -- 92
2021-01-03 05:00:00 -4.4 0 Calma 2 Norte 0 -- -- 92
2021-01-03 04:00:00 -3.9 0 Calma 4 Noroeste 0 -- -- 92
2021-01-03 03:00:00 -3.3 2 Noroeste 3 Norte 0 -- -- 91
2021-01-03 02:00:00 -2.8 0 Calma 4 Norte 0 -- -- 90
2021-01-03 01:00:00 -1.9 0 Calma 5 Este 0 -- -- 85
2021-01-03 00:00:00 0.4 3 Noroeste 10 Noroeste 0 -- -- 79
2021-01-02 23:00:00 0.2 3 Noroeste 8 Noroeste 0 -- -- 79
2021-01-02 22:00:00 1.5 4 Norte 7 Norte 0 -- -- 75
2021-01-02 21:00:00 2.5 3 Norte 9 Noroeste 0 -- -- 73
2021-01-02 20:00:00 2.9 4 Norte 9 Norte 0 -- -- 71
2021-01-02 19:00:00 4.6 5 Norte 14 Noroeste 0 -- -- 64
2021-01-02 18:00:00 6.3 6 Norte 20 Noroeste 0 -- -- 58
2021-01-02 17:00:00 7.6 9 Noroeste 21 Noroeste 0 -- -- 52
2021-01-02 16:00:00 7.6 12 Oeste 26 Oeste 0 -- -- 53
2021-01-02 15:00:00 7.5 13 Oeste 28 Oeste 0 -- -- 59
2021-01-02 14:00:00 6.5 13 Oeste 23 Oeste 0 -- -- 65